createdAt,value
2017-11-15T00:01:18.312Z,7.96
2017-11-15T00:03:50.484Z,8.02
2017-11-15T00:06:19.617Z,7.86
2017-11-15T00:08:48.475Z,8.21
2017-11-15T00:11:18.073Z,8.33
2017-11-15T00:13:47.264Z,8.46
2017-11-15T00:16:16.070Z,8.29
2017-11-15T00:18:45.659Z,8.03
2017-11-15T00:21:14.669Z,7.93
2017-11-15T00:23:44.617Z,7.93
2017-11-15T00:26:13.463Z,7.83
2017-11-15T00:28:42.235Z,8.13
2017-11-15T00:31:11.396Z,8.10
2017-11-15T00:33:40.295Z,7.91
2017-11-15T00:36:09.104Z,8.12
2017-11-15T00:38:38.029Z,8.38
2017-11-15T00:41:07.595Z,8.17
2017-11-15T00:43:36.863Z,8.25
2017-11-15T00:46:05.675Z,8.17
2017-11-15T00:51:18.741Z,8.25
2017-11-15T00:53:48.579Z,8.13
2017-11-15T00:56:17.384Z,8.46
2017-11-15T00:58:46.232Z,8.34
2017-11-15T01:01:16.403Z,8.50
2017-11-15T01:03:45.196Z,8.54
2017-11-15T01:06:14.066Z,8.29
2017-11-15T01:08:42.847Z,8.62
2017-11-15T01:11:11.676Z,9.23
2017-11-15T01:13:40.868Z,9.24
2017-11-15T01:16:09.651Z,8.92
2017-11-15T01:18:38.712Z,8.69
2017-11-15T01:21:08.017Z,8.94
2017-11-15T01:23:36.836Z,9.19
2017-11-15T01:26:05.620Z,9.27
2017-11-15T01:28:34.438Z,9.07
2017-11-15T01:31:04.109Z,8.78
2017-11-15T01:33:33.279Z,9.29
2017-11-15T01:36:02.148Z,9.33
2017-11-15T01:38:31.187Z,9.55
2017-11-15T01:41:00.060Z,9.09
2017-11-15T01:43:29.413Z,9.17
2017-11-15T01:45:58.287Z,8.78
2017-11-15T01:48:27.256Z,8.66
2017-11-15T01:50:56.052Z,8.36
2017-11-15T01:53:24.939Z,8.72
2017-11-15T01:55:53.855Z,8.69
2017-11-15T01:58:23.579Z,8.65
2017-11-15T02:01:09.597Z,8.48
2017-11-15T02:03:38.419Z,8.58
2017-11-15T02:06:07.259Z,8.36
2017-11-15T02:08:36.111Z,8.63
2017-11-15T02:11:05.711Z,8.92
2017-11-15T02:13:34.595Z,8.59
2017-11-15T02:16:05.665Z,8.53
2017-11-15T02:18:34.496Z,8.70
2017-11-15T02:21:03.767Z,8.59
2017-11-15T02:23:32.716Z,8.84
2017-11-15T02:26:01.776Z,8.84
2017-11-15T02:28:30.858Z,8.78
2017-11-15T02:30:59.894Z,9.04
2017-11-15T02:33:30.119Z,9.43
2017-11-15T02:35:58.956Z,9.50
2017-11-15T02:38:27.923Z,9.29
2017-11-15T02:40:56.964Z,9.58
2017-11-15T02:43:25.875Z,9.55
2017-11-15T02:45:54.809Z,9.66
2017-11-15T02:48:23.778Z,9.61
2017-11-15T02:50:53.450Z,9.46
2017-11-15T02:53:22.408Z,9.26
2017-11-15T02:55:51.295Z,9.34
2017-11-15T02:58:20.164Z,9.58
2017-11-15T03:00:49.174Z,9.48
2017-11-15T03:03:18.051Z,9.69
2017-11-15T03:05:46.863Z,9.59
